Time,TemperatureF,DewpointF,PressureIn,WindDirection,WindDirectionDegrees,WindSpeedMPH,WindSpeedGustMPH,Humidity,HourlyPrecipIn,Conditions,Clouds,dailyrainin,SoftwareType,DateUTC
2013-01-02 00:02:00,33.2,32.1,29.92,SW,225,1.5,1.5,96,0.00,,,0.00,WUHU216HW,2013-01-02 08:02:00,
2013-01-02 00:07:00,33.4,32.3,29.92,SW,225,0.0,1.5,96,0.00,,,0.00,WUHU216HW,2013-01-02 08:07:00,
2013-01-02 00:12:00,33.2,32.1,29.92,SW,225,0.0,1.5,96,0.00,,,0.00,WUHU216HW,2013-01-02 08:12:00,
2013-01-02 00:17:00,33.2,32.1,29.92,SW,225,0.0,0.0,96,0.00,,,0.00,WUHU216HW,2013-01-02 08:17:00,
2013-01-02 00:22:00,33.0,32.0,29.91,SW,225,0.0,0.0,96,0.00,,,0.00,WUHU216HW,2013-01-02 08:22:00,
2013-01-02 00:27:00,33.2,32.1,29.92,SW,225,0.0,0.0,96,0.00,,,0.00,WUHU216HW,2013-01-02 08:27:00,
2013-01-02 00:32:00,32.9,31.8,29.92,SW,225,0.0,0.0,96,0.00,,,0.00,WUHU216HW,2013-01-02 08:32:00,
2013-01-02 00:37:00,32.9,31.8,29.92,SW,225,0.0,0.0,96,0.00,,,0.00,WUHU216HW,2013-01-02 08:37:00,
2013-01-02 00:42:00,32.9,31.5,29.92,SW,225,0.0,0.0,95,0.00,,,0.00,WUHU216HW,2013-01-02 08:42:00,
2013-01-02 00:47:00,32.7,31.4,29.92,SW,225,0.0,0.0,95,0.00,,,0.00,WUHU216HW,2013-01-02 08:47:00,
2013-01-02 00:52:00,32.7,31.4,29.92,SW,225,0.0,0.0,95,0.00,,,0.00,WUHU216HW,2013-01-02 08:52:00,
2013-01-02 00:57:00,32.5,31.2,29.91,SW,225,0.0,0.0,95,0.00,,,0.00,WUHU216HW,2013-01-02 08:57:00,
2013-01-02 01:02:00,32.5,31.2,29.91,SW,225,0.0,0.0,95,0.00,,,0.00,WUHU216HW,2013-01-02 09:02:00,
2013-01-02 01:07:00,32.5,31.2,29.92,SW,225,0.0,0.0,95,0.00,,,0.00,WUHU216HW,2013-01-02 09:07:00,
2013-01-02 01:12:00,32.5,31.2,29.91,SW,225,1.1,1.1,95,0.00,,,0.00,WUHU216HW,2013-01-02 09:12:00,
2013-01-02 01:17:00,32.9,31.5,29.91,SW,225,0.0,1.1,95,0.00,,,0.00,WUHU216HW,2013-01-02 09:17:00,
2013-01-02 01:22:00,32.9,31.5,29.92,SW,225,0.0,0.0,95,0.00,,,0.00,WUHU216HW,2013-01-02 09:22:00,
2013-01-02 01:27:00,32.9,31.5,29.91,SW,225,0.0,0.0,95,0.00,,,0.00,WUHU216HW,2013-01-02 09:27:00,
2013-01-02 01:32:00,33.0,31.7,29.91,SW,225,0.0,0.0,95,0.00,,,0.00,WUHU216HW,2013-01-02 09:32:00,
2013-01-02 01:37:00,33.0,31.7,29.91,SW,225,1.5,1.5,95,0.00,,,0.00,WUHU216HW,2013-01-02 09:37:00,
2013-01-02 01:42:00,33.2,31.6,29.91,SW,225,0.0,1.5,94,0.00,,,0.00,WUHU216HW,2013-01-02 09:42:00,
2013-01-02 01:47:00,33.2,31.6,29.91,SW,225,0.0,1.5,94,0.00,,,0.00,WUHU216HW,2013-01-02 09:47:00,
2013-01-02 01:52:00,33.2,31.6,29.91,SW,225,0.6,1.3,94,0.00,,,0.00,WUHU216HW,2013-01-02 09:52:00,
2013-01-02 01:57:00,33.4,31.8,29.91,SW,225,0.0,1.3,94,0.00,,,0.00,WUHU216HW,2013-01-02 09:57:00,
2013-01-02 02:02:00,33.6,32.0,29.91,SW,225,0.0,2.2,94,0.00,,,0.00,WUHU216HW,2013-01-02 10:02:00,
2013-01-02 02:07:00,33.4,31.8,29.90,SW,225,2.0,2.2,94,0.00,,,0.00,WUHU216HW,2013-01-02 10:07:00,
2013-01-02 02:12:00,33.6,31.7,29.91,SW,225,1.3,2.0,93,0.00,,,0.00,WUHU216HW,2013-01-02 10:12:00,
2013-01-02 02:17:00,33.4,31.5,29.90,SW,225,2.2,2.2,93,0.00,,,0.00,WUHU216HW,2013-01-02 10:17:00,
2013-01-02 02:22:00,33.6,31.7,29.91,SW,225,0.0,2.2,93,0.00,,,0.00,WUHU216HW,2013-01-02 10:22:00,
2013-01-02 02:27:00,33.6,31.7,29.91,SW,225,2.2,2.2,93,0.00,,,0.00,WUHU216HW,2013-01-02 10:27:00,
2013-01-02 02:32:00,33.6,31.4,29.91,SW,225,2.2,2.2,92,0.00,,,0.00,WUHU216HW,2013-01-02 10:32:00,
2013-01-02 02:37:00,33.4,31.2,29.90,SW,225,0.0,2.2,92,0.00,,,0.00,WUHU216HW,2013-01-02 10:37:00,
2013-01-02 02:42:00,33.2,31.1,29.90,SW,225,0.0,2.2,92,0.00,,,0.00,WUHU216HW,2013-01-02 10:42:00,
2013-01-02 02:47:00,33.0,30.9,29.90,SW,225,0.0,1.3,92,0.00,,,0.00,WUHU216HW,2013-01-02 10:47:00,
2013-01-02 02:52:00,33.0,30.9,29.90,SW,225,0.0,1.3,92,0.00,,,0.00,WUHU216HW,2013-01-02 10:52:00,
2013-01-02 02:57:00,33.2,31.1,29.90,SW,225,0.0,0.0,92,0.00,,,0.00,WUHU216HW,2013-01-02 10:57:00,
2013-01-02 03:02:00,32.9,30.8,29.90,SW,225,0.0,0.0,92,0.00,,,0.00,WUHU216HW,2013-01-02 11:02:00,
2013-01-02 03:07:00,32.7,30.6,29.90,SW,225,0.0,0.0,92,0.00,,,0.00,WUHU216HW,2013-01-02 11:07:00,
2013-01-02 03:12:00,32.7,30.9,29.90,SW,225,0.0,0.0,93,0.00,,,0.00,WUHU216HW,2013-01-02 11:12:00,
2013-01-02 03:17:00,32.3,30.3,29.89,SW,225,0.0,0.0,92,0.00,,,0.00,WUHU216HW,2013-01-02 11:17:00,
2013-01-02 03:22:00,32.3,30.3,29.89,SW,225,0.0,0.0,92,0.00,,,0.00,WUHU216HW,2013-01-02 11:22:00,
2013-01-02 03:27:00,32.1,30.1,29.89,SW,225,0.0,0.0,92,0.00,,,0.00,WUHU216HW,2013-01-02 11:27:00,
2013-01-02 03:32:00,32.5,30.7,29.89,SW,225,0.0,0.0,93,0.00,,,0.00,WUHU216HW,2013-01-02 11:32:00,
2013-01-02 03:37:00,32.5,30.4,29.89,SW,225,0.0,0.0,92,0.00,,,0.00,WUHU216HW,2013-01-02 11:37:00,
2013-01-02 03:42:00,32.7,30.9,29.88,SW,225,0.0,0.0,93,0.00,,,0.00,WUHU216HW,2013-01-02 11:42:00,
2013-01-02 03:47:00,32.5,30.4,29.89,SW,225,0.0,0.0,92,0.00,,,0.00,WUHU216HW,2013-01-02 11:47:00,
2013-01-02 03:52:00,32.7,30.6,29.89,SW,225,1.3,1.3,92,0.00,,,0.00,WUHU216HW,2013-01-02 11:52:00,
2013-01-02 03:57:00,32.9,30.8,29.89,SW,225,0.0,1.3,92,0.00,,,0.00,WUHU216HW,2013-01-02 11:57:00,
2013-01-02 04:02:00,32.7,30.6,29.88,SW,225,0.0,0.0,92,0.00,,,0.00,WUHU216HW,2013-01-02 12:02:00,
2013-01-02 04:07:00,32.5,30.4,29.88,SW,225,0.0,0.0,92,0.00,,,0.00,WUHU216HW,2013-01-02 12:07:00,
2013-01-02 04:12:00,32.3,30.3,29.88,SW,225,0.0,0.0,92,0.00,,,0.00,WUHU216HW,2013-01-02 12:12:00,
2013-01-02 04:17:00,32.5,30.4,29.88,SW,225,0.0,0.0,92,0.00,,,0.00,WUHU216HW,2013-01-02 12:17:00,
2013-01-02 04:22:00,33.0,30.7,29.87,SW,225,0.0,0.0,91,0.00,,,0.00,WUHU216HW,2013-01-02 12:22:00,
2013-01-02 04:28:00,33.0,30.7,29.87,SW,225,0.0,0.0,91,0.00,,,0.00,WUHU216HW,2013-01-02 12:28:00,
2013-01-02 04:32:00,33.0,30.7,29.87,SW,225,0.0,0.0,91,0.00,,,0.00,WUHU216HW,2013-01-02 12:32:00,
2013-01-02 04:38:00,33.0,30.7,29.87,SW,225,0.0,0.0,91,0.00,,,0.00,WUHU216HW,2013-01-02 12:38:00,
2013-01-02 04:43:00,32.5,30.2,29.88,SW,225,0.0,0.0,91,0.00,,,0.00,WUHU216HW,2013-01-02 12:43:00,
2013-01-02 04:48:00,32.1,29.8,29.87,SW,225,0.0,0.0,91,0.00,,,0.00,WUHU216HW,2013-01-02 12:48:00,
2013-01-02 04:53:00,31.8,29.5,29.87,SW,225,0.0,0.0,91,0.00,,,0.00,WUHU216HW,2013-01-02 12:53:00,
2013-01-02 04:58:00,31.8,29.8,29.87,SW,225,0.0,0.0,92,0.00,,,0.00,WUHU216HW,2013-01-02 12:58:00,
2013-01-02 05:03:00,31.6,29.6,29.87,SW,225,0.0,0.0,92,0.00,,,0.00,WUHU216HW,2013-01-02 13:03:00,
2013-01-02 05:08:00,31.6,29.6,29.87,SW,225,0.0,0.0,92,0.00,,,0.00,WUHU216HW,2013-01-02 13:08:00,
2013-01-02 05:13:00,31.2,29.2,29.87,SW,225,0.0,0.0,92,0.00,,,0.00,WUHU216HW,2013-01-02 13:13:00,
2013-01-02 05:18:00,31.2,29.2,29.87,SW,225,0.0,0.0,92,0.00,,,0.00,WUHU216HW,2013-01-02 13:18:00,
2013-01-02 05:23:00,31.2,29.2,29.87,SW,225,0.0,0.0,92,0.00,,,0.00,WUHU216HW,2013-01-02 13:23:00,
2013-01-02 05:28:00,31.4,29.4,29.87,SW,225,0.0,0.0,92,0.00,,,0.00,WUHU216HW,2013-01-02 13:28:00,
2013-01-02 05:33:00,31.6,29.6,29.87,SW,225,0.0,0.0,92,0.00,,,0.00,WUHU216HW,2013-01-02 13:33:00,
2013-01-02 05:38:00,31.4,29.4,29.87,SW,225,0.0,0.0,92,0.00,,,0.00,WUHU216HW,2013-01-02 13:38:00,
2013-01-02 05:43:00,31.2,29.2,29.87,SW,225,0.0,0.0,92,0.00,,,0.00,WUHU216HW,2013-01-02 13:43:00,
2013-01-02 05:48:00,31.2,29.2,29.87,SW,225,0.0,0.0,92,0.00,,,0.00,WUHU216HW,2013-01-02 13:48:00,
2013-01-02 05:53:00,31.6,29.6,29.87,SW,225,0.0,0.0,92,0.00,,,0.00,WUHU216HW,2013-01-02 13:53:00,
2013-01-02 05:58:00,31.2,29.2,29.87,SW,225,0.0,0.0,92,0.00,,,0.00,WUHU216HW,2013-01-02 13:58:00,
2013-01-02 06:03:00,31.2,29.2,29.87,SW,225,0.0,0.0,92,0.00,,,0.00,WUHU216HW,2013-01-02 14:03:00,
2013-01-02 06:08:00,31.4,29.4,29.87,SW,225,0.0,0.0,92,0.00,,,0.00,WUHU216HW,2013-01-02 14:08:00,
2013-01-02 06:13:00,31.2,29.2,29.87,SW,225,0.0,0.0,92,0.00,,,0.00,WUHU216HW,2013-01-02 14:13:00,
2013-01-02 06:18:00,31.2,29.2,29.87,SW,225,0.0,0.0,92,0.00,,,0.00,WUHU216HW,2013-01-02 14:18:00,
2013-01-02 06:23:00,31.2,29.2,29.87,SW,225,0.0,0.0,92,0.00,,,0.00,WUHU216HW,2013-01-02 14:23:00,
2013-01-02 06:28:00,31.1,29.0,29.87,SW,225,0.0,0.0,92,0.00,,,0.00,WUHU216HW,2013-01-02 14:28:00,
2013-01-02 06:33:00,31.1,29.0,29.86,SW,225,0.0,0.0,92,0.00,,,0.00,WUHU216HW,2013-01-02 14:33:00,
2013-01-02 06:38:00,31.2,29.2,29.86,SW,225,0.0,0.0,92,0.00,,,0.00,WUHU216HW,2013-01-02 14:38:00,
2013-01-02 06:43:00,31.2,29.2,29.87,SW,225,0.0,0.0,92,0.00,,,0.00,WUHU216HW,2013-01-02 14:43:00,
2013-01-02 06:48:00,31.2,29.2,29.87,SW,225,0.0,0.0,92,0.00,,,0.00,WUHU216HW,2013-01-02 14:48:00,
2013-01-02 06:53:00,31.2,29.2,29.87,SW,225,0.0,0.0,92,0.00,,,0.00,WUHU216HW,2013-01-02 14:53:00,
2013-01-02 06:58:00,31.1,29.0,29.86,SW,225,0.0,0.0,92,0.00,,,0.00,WUHU216HW,2013-01-02 14:58:00,
2013-01-02 07:03:00,31.4,29.4,29.86,SW,225,0.0,0.0,92,0.00,,,0.00,WUHU216HW,2013-01-02 15:03:00,
2013-01-02 07:08:00,31.8,29.8,29.86,SW,225,0.0,0.0,92,0.00,,,0.00,WUHU216HW,2013-01-02 15:08:00,
2013-01-02 07:13:00,32.3,30.0,29.86,SW,225,0.0,2.0,91,0.00,,,0.00,WUHU216HW,2013-01-02 15:13:00,
2013-01-02 07:18:00,32.5,30.2,29.86,SW,225,0.0,2.0,91,0.00,,,0.00,WUHU216HW,2013-01-02 15:18:00,
2013-01-02 07:23:00,32.7,30.1,29.87,SW,225,0.8,0.8,90,0.00,,,0.00,WUHU216HW,2013-01-02 15:23:00,
2013-01-02 07:28:00,32.9,30.0,29.87,SW,225,1.1,1.1,89,0.00,,,0.00,WUHU216HW,2013-01-02 15:28:00,
2013-01-02 07:33:00,32.9,30.0,29.86,SW,225,2.2,2.2,89,0.00,,,0.00,WUHU216HW,2013-01-02 15:33:00,
2013-01-02 07:38:00,32.9,29.7,29.87,SW,225,0.0,2.2,88,0.00,,,0.00,WUHU216HW,2013-01-02 15:38:00,
2013-01-02 07:43:00,32.7,29.5,29.86,SW,225,0.0,2.2,88,0.00,,,0.00,WUHU216HW,2013-01-02 15:43:00,
2013-01-02 07:48:00,32.7,29.5,29.86,SW,225,0.0,0.0,88,0.00,,,0.00,WUHU216HW,2013-01-02 15:48:00,
2013-01-02 07:53:00,32.7,29.5,29.87,SW,225,0.0,0.0,88,0.00,,,0.00,WUHU216HW,2013-01-02 15:53:00,
2013-01-02 07:58:00,32.7,29.5,29.87,SW,225,0.0,0.0,88,0.00,,,0.00,WUHU216HW,2013-01-02 15:58:00,
2013-01-02 08:03:00,32.5,29.3,29.87,SW,225,0.0,0.0,88,0.00,,,0.00,WUHU216HW,2013-01-02 16:03:00,
2013-01-02 08:08:00,32.5,29.3,29.87,SW,225,0.0,0.0,88,0.00,,,0.00,WUHU216HW,2013-01-02 16:08:00,
2013-01-02 08:13:00,32.1,29.0,29.87,SW,225,0.0,0.0,88,0.00,,,0.00,WUHU216HW,2013-01-02 16:13:00,
2013-01-02 08:18:00,32.1,29.3,29.87,SW,225,0.0,0.0,89,0.00,,,0.00,WUHU216HW,2013-01-02 16:18:00,
2013-01-02 08:23:00,31.8,29.0,29.87,SW,225,0.0,0.0,89,0.00,,,0.00,WUHU216HW,2013-01-02 16:23:00,
2013-01-02 08:28:00,32.1,29.1,29.87,SW,225,0.0,0.0,89,0.00,,,0.00,WUHU216HW,2013-01-02 16:28:00,
2013-01-02 08:33:00,31.8,29.0,29.87,SW,225,0.0,0.0,89,0.00,,,0.00,WUHU216HW,2013-01-02 16:33:00,
2013-01-02 08:38:00,31.8,29.0,29.88,SW,225,0.0,0.0,89,0.00,,,0.00,WUHU216HW,2013-01-02 16:38:00,
2013-01-02 08:43:00,31.8,29.0,29.88,SW,225,0.0,0.0,89,0.00,,,0.00,WUHU216HW,2013-01-02 16:43:00,
2013-01-02 08:48:00,31.8,29.0,29.88,SW,225,0.0,0.0,89,0.00,,,0.00,WUHU216HW,2013-01-02 16:48:00,
2013-01-02 08:53:00,31.8,29.0,29.87,SW,225,0.0,0.0,89,0.00,,,0.00,WUHU216HW,2013-01-02 16:53:00,
2013-01-02 08:58:00,31.6,29.3,29.87,SW,225,0.0,0.0,90,0.00,,,0.00,WUHU216HW,2013-01-02 16:58:00,
2013-01-02 09:03:00,31.6,29.1,29.87,SW,225,0.0,0.0,90,0.00,,,0.00,WUHU216HW,2013-01-02 17:03:00,
2013-01-02 09:08:00,31.2,28.7,29.87,SW,225,0.0,0.0,90,0.00,,,0.00,WUHU216HW,2013-01-02 17:08:00,
2013-01-02 09:13:00,31.2,28.7,29.87,SW,225,0.0,0.0,90,0.00,,,0.00,WUHU216HW,2013-01-02 17:13:00,
2013-01-02 09:18:00,31.2,28.7,29.87,SW,225,0.0,0.0,90,0.00,,,0.00,WUHU216HW,2013-01-02 17:18:00,
2013-01-02 09:23:00,31.1,28.5,29.87,SW,225,0.0,0.0,90,0.00,,,0.00,WUHU216HW,2013-01-02 17:23:00,
2013-01-02 09:28:00,31.6,29.1,29.87,SW,225,0.0,0.0,90,0.00,,,0.00,WUHU216HW,2013-01-02 17:28:00,
2013-01-02 09:33:00,31.4,28.9,29.87,SW,225,0.0,0.0,90,0.00,,,0.00,WUHU216HW,2013-01-02 17:33:00,
2013-01-02 09:38:00,31.2,28.7,29.87,SW,225,0.0,0.0,90,0.00,,,0.00,WUHU216HW,2013-01-02 17:38:00,
2013-01-02 09:43:00,31.6,29.1,29.86,SW,225,0.0,0.0,90,0.00,,,0.00,WUHU216HW,2013-01-02 17:43:00,
2013-01-02 09:48:00,32.3,29.8,29.87,SW,225,0.0,0.0,90,0.00,,,0.00,WUHU216HW,2013-01-02 17:48:00,
2013-01-02 09:53:00,32.9,30.0,29.87,SW,225,0.0,0.0,89,0.00,,,0.00,WUHU216HW,2013-01-02 17:53:00,
2013-01-02 09:58:00,33.8,30.2,29.87,SW,225,0.0,0.0,87,0.00,,,0.00,WUHU216HW,2013-01-02 17:58:00,
2013-01-02 10:03:00,34.1,30.3,29.87,SW,225,0.0,0.0,86,0.00,,,0.00,WUHU216HW,2013-01-02 18:03:00,
2013-01-02 10:08:00,34.3,30.2,29.87,SW,225,0.0,0.0,85,0.00,,,0.00,WUHU216HW,2013-01-02 18:08:00,
2013-01-02 10:13:00,34.5,30.0,29.87,SW,225,0.0,0.0,84,0.00,,,0.00,WUHU216HW,2013-01-02 18:13:00,
2013-01-02 10:18:00,34.7,30.2,29.87,SW,225,1.3,1.3,84,0.00,,,0.00,WUHU216HW,2013-01-02 18:18:00,
2013-01-02 10:23:00,35.0,30.3,29.87,SW,225,0.0,1.3,83,0.00,,,0.00,WUHU216HW,2013-01-02 18:23:00,
2013-01-02 10:28:00,35.4,30.4,29.87,SW,225,0.0,1.3,82,0.00,,,0.00,WUHU216HW,2013-01-02 18:28:00,
2013-01-02 10:33:00,35.7,30.7,29.87,SW,225,0.0,1.3,82,0.00,,,0.00,WUHU216HW,2013-01-02 18:33:00,
2013-01-02 10:38:00,35.6,30.5,29.87,SW,225,0.0,1.3,82,0.00,,,0.00,WUHU216HW,2013-01-02 18:38:00,
2013-01-02 10:43:00,35.9,30.9,29.87,SW,225,0.0,1.3,82,0.00,,,0.00,WUHU216HW,2013-01-02 18:43:00,
2013-01-02 10:48:00,36.1,31.1,29.86,SW,225,0.0,0.0,82,0.00,,,0.00,WUHU216HW,2013-01-02 18:48:00,
2013-01-02 10:53:00,35.9,30.9,29.86,SW,225,0.0,0.0,82,0.00,,,0.00,WUHU216HW,2013-01-02 18:53:00,
2013-01-02 10:58:00,35.2,30.8,29.86,SW,225,0.0,0.0,84,0.00,,,0.00,WUHU216HW,2013-01-02 18:58:00,
2013-01-02 11:03:00,35.4,30.9,29.87,SW,225,0.0,0.0,84,0.00,,,0.00,WUHU216HW,2013-01-02 19:03:00,
2013-01-02 11:08:00,35.4,30.9,29.86,SW,225,0.0,0.0,84,0.00,,,0.00,WUHU216HW,2013-01-02 19:08:00,
2013-01-02 11:13:00,36.3,31.8,29.86,SW,225,0.0,0.0,84,0.00,,,0.00,WUHU216HW,2013-01-02 19:13:00,
2013-01-02 11:18:00,36.3,31.6,29.86,SW,225,0.0,0.0,83,0.00,,,0.00,WUHU216HW,2013-01-02 19:18:00,
2013-01-02 11:23:00,36.5,31.7,29.85,SW,225,0.0,0.0,83,0.00,,,0.00,WUHU216HW,2013-01-02 19:23:00,
2013-01-02 11:28:00,36.6,31.9,29.85,SW,225,0.0,0.0,83,0.00,,,0.00,WUHU216HW,2013-01-02 19:28:00,
2013-01-02 11:33:00,37.0,32.0,29.85,SW,225,0.0,0.0,82,0.00,,,0.00,WUHU216HW,2013-01-02 19:33:00,
2013-01-02 11:38:00,36.6,31.6,29.85,SW,225,0.0,0.0,82,0.00,,,0.00,WUHU216HW,2013-01-02 19:38:00,
2013-01-02 11:43:00,36.1,31.7,29.85,SW,225,0.0,0.0,84,0.00,,,0.00,WUHU216HW,2013-01-02 19:43:00,
2013-01-02 11:48:00,35.6,31.4,29.85,SW,225,0.0,0.0,85,0.00,,,0.00,WUHU216HW,2013-01-02 19:48:00,
2013-01-02 11:53:00,35.2,31.1,29.85,SW,225,0.0,0.0,85,0.00,,,0.00,WUHU216HW,2013-01-02 19:53:00,
2013-01-02 11:58:00,34.8,31.0,29.85,WSW,248,0.0,0.0,86,0.00,,,0.00,WUHU216HW,2013-01-02 19:58:00,
2013-01-02 12:03:00,34.7,31.1,29.85,WSW,248,0.0,0.0,87,0.00,,,0.00,WUHU216HW,2013-01-02 20:03:00,
2013-01-02 12:08:00,34.3,30.7,29.85,WSW,248,0.0,0.0,87,0.00,,,0.00,WUHU216HW,2013-01-02 20:08:00,
2013-01-02 12:13:00,34.3,30.7,29.85,WSW,248,0.0,0.0,87,0.00,,,0.00,WUHU216HW,2013-01-02 20:13:00,
2013-01-02 12:18:00,34.3,31.0,29.84,WSW,248,0.0,0.0,88,0.00,,,0.00,WUHU216HW,2013-01-02 20:18:00,
2013-01-02 12:23:00,34.3,31.0,29.84,WSW,248,0.0,0.0,88,0.00,,,0.00,WUHU216HW,2013-01-02 20:23:00,
2013-01-02 12:28:00,34.7,31.4,29.84,WSW,248,0.0,0.0,88,0.00,,,0.00,WUHU216HW,2013-01-02 20:28:00,
2013-01-02 12:33:00,35.2,31.9,29.83,SSW,203,0.0,0.0,88,0.00,,,0.00,WUHU216HW,2013-01-02 20:33:00,
2013-01-02 12:38:00,35.7,32.5,29.84,South,180,0.0,0.0,88,0.00,,,0.00,WUHU216HW,2013-01-02 20:38:00,
2013-01-02 12:43:00,36.6,32.8,29.84,South,180,0.0,0.0,86,0.00,,,0.00,WUHU216HW,2013-01-02 20:43:00,
2013-01-02 12:48:00,37.2,33.3,29.83,South,180,0.0,0.0,86,0.00,,,0.00,WUHU216HW,2013-01-02 20:48:00,
2013-01-02 12:53:00,37.2,33.3,29.83,South,180,0.0,0.0,86,0.00,,,0.00,WUHU216HW,2013-01-02 20:53:00,
2013-01-02 12:58:00,37.7,33.6,29.83,SSW,203,0.0,0.0,85,0.00,,,0.00,WUHU216HW,2013-01-02 20:58:00,
2013-01-02 13:03:00,37.7,33.3,29.83,SSW,203,0.0,0.0,84,0.00,,,0.00,WUHU216HW,2013-01-02 21:03:00,
2013-01-02 13:08:00,37.5,33.1,29.83,WNW,293,0.0,0.0,84,0.00,,,0.00,WUHU216HW,2013-01-02 21:08:00,
2013-01-02 13:13:00,37.4,32.9,29.83,WSW,248,0.0,0.0,84,0.00,,,0.00,WUHU216HW,2013-01-02 21:13:00,
2013-01-02 13:18:00,37.2,33.0,29.82,WSW,248,0.0,0.0,85,0.00,,,0.00,WUHU216HW,2013-01-02 21:18:00,
2013-01-02 13:23:00,36.6,32.5,29.83,WSW,248,0.0,0.0,85,0.00,,,0.00,WUHU216HW,2013-01-02 21:23:00,
2013-01-02 13:28:00,36.3,32.4,29.82,WSW,248,0.0,0.0,86,0.00,,,0.00,WUHU216HW,2013-01-02 21:28:00,
2013-01-02 13:33:00,35.9,32.1,29.82,WSW,248,0.0,0.0,86,0.00,,,0.00,WUHU216HW,2013-01-02 21:33:00,
2013-01-02 13:38:00,35.9,32.3,29.82,WSW,248,0.0,0.0,87,0.00,,,0.00,WUHU216HW,2013-01-02 21:38:00,
2013-01-02 13:43:00,36.3,32.7,29.82,SSW,203,0.0,0.0,87,0.00,,,0.00,WUHU216HW,2013-01-02 21:43:00,
2013-01-02 13:48:00,37.2,33.0,29.82,SSW,203,0.0,0.0,85,0.00,,,0.00,WUHU216HW,2013-01-02 21:48:00,
2013-01-02 13:53:00,37.7,33.3,29.82,South,180,0.0,0.0,84,0.00,,,0.00,WUHU216HW,2013-01-02 21:53:00,
2013-01-02 13:58:00,37.9,33.2,29.82,South,180,0.0,0.0,83,0.00,,,0.00,WUHU216HW,2013-01-02 21:58:00,
2013-01-02 14:03:00,38.4,33.4,29.82,South,180,0.0,0.0,82,0.00,,,0.00,WUHU216HW,2013-01-02 22:03:00,
2013-01-02 14:08:00,38.6,33.6,29.82,South,180,0.0,0.0,82,0.00,,,0.00,WUHU216HW,2013-01-02 22:08:00,
2013-01-02 14:13:00,38.8,33.5,29.82,SSW,203,0.0,0.0,81,0.00,,,0.00,WUHU216HW,2013-01-02 22:13:00,
2013-01-02 14:18:00,39.0,33.4,29.82,South,180,0.0,0.0,80,0.00,,,0.00,WUHU216HW,2013-01-02 22:18:00,
2013-01-02 14:23:00,39.0,33.0,29.82,SSW,203,0.0,0.0,79,0.00,,,0.00,WUHU216HW,2013-01-02 22:23:00,
2013-01-02 14:28:00,39.3,33.0,29.82,SSW,203,0.0,0.0,78,0.00,,,0.00,WUHU216HW,2013-01-02 22:28:00,
2013-01-02 14:33:00,39.2,32.9,29.82,South,180,0.0,0.0,78,0.00,,,0.00,WUHU216HW,2013-01-02 22:33:00,
2013-01-02 14:38:00,39.0,32.7,29.82,South,180,0.0,0.0,78,0.00,,,0.00,WUHU216HW,2013-01-02 22:38:00,
2013-01-02 14:43:00,38.8,32.9,29.82,SSW,203,0.0,0.0,79,0.00,,,0.00,WUHU216HW,2013-01-02 22:43:00,
2013-01-02 14:48:00,38.4,32.5,29.82,South,180,0.0,0.0,79,0.00,,,0.00,WUHU216HW,2013-01-02 22:48:00,
2013-01-02 14:53:00,38.1,32.5,29.82,South,180,0.0,0.0,80,0.00,,,0.00,WUHU216HW,2013-01-02 22:53:00,
2013-01-02 14:58:00,37.9,32.3,29.82,South,180,0.0,0.0,80,0.00,,,0.00,WUHU216HW,2013-01-02 22:58:00,
2013-01-02 15:03:00,37.5,32.2,29.82,South,180,0.0,0.0,81,0.00,,,0.00,WUHU216HW,2013-01-02 23:03:00,
2013-01-02 15:08:00,37.4,32.1,29.82,South,180,0.0,0.0,81,0.00,,,0.00,WUHU216HW,2013-01-02 23:08:00,
2013-01-02 15:13:00,37.4,32.1,29.81,South,180,0.0,0.0,81,0.00,,,0.00,WUHU216HW,2013-01-02 23:13:00,
2013-01-02 15:18:00,37.2,32.2,29.82,South,180,0.0,0.0,82,0.00,,,0.00,WUHU216HW,2013-01-02 23:18:00,
2013-01-02 15:23:00,37.4,32.1,29.81,SSW,203,1.1,1.1,81,0.00,,,0.00,WUHU216HW,2013-01-02 23:23:00,
2013-01-02 15:28:00,37.5,32.2,29.82,South,180,0.0,1.1,81,0.00,,,0.00,WUHU216HW,2013-01-02 23:28:00,
2013-01-02 15:33:00,37.4,32.1,29.82,South,180,0.0,0.0,81,0.00,,,0.00,WUHU216HW,2013-01-02 23:33:00,
2013-01-02 15:38:00,37.4,32.1,29.82,SSW,203,0.0,0.0,81,0.00,,,0.00,WUHU216HW,2013-01-02 23:38:00,
2013-01-02 15:43:00,37.2,32.2,29.82,South,180,0.0,0.0,82,0.00,,,0.00,WUHU216HW,2013-01-02 23:43:00,
2013-01-02 15:48:00,36.8,32.1,29.81,South,180,0.0,0.0,83,0.00,,,0.00,WUHU216HW,2013-01-02 23:48:00,
2013-01-02 15:53:00,36.5,31.7,29.81,South,180,0.0,0.0,83,0.00,,,0.00,WUHU216HW,2013-01-02 23:53:00,
2013-01-02 15:58:00,36.1,31.7,29.81,South,180,0.0,0.0,84,0.00,,,0.00,WUHU216HW,2013-01-02 23:58:00,
2013-01-02 16:03:00,35.9,31.5,29.82,South,180,0.0,0.0,84,0.00,,,0.00,WUHU216HW,2013-01-03 00:03:00,
2013-01-02 16:08:00,35.7,31.6,29.82,South,180,0.0,0.0,85,0.00,,,0.00,WUHU216HW,2013-01-03 00:08:00,
2013-01-02 16:13:00,35.7,31.6,29.82,South,180,0.0,0.0,85,0.00,,,0.00,WUHU216HW,2013-01-03 00:13:00,
2013-01-02 16:18:00,35.7,31.6,29.82,South,180,0.0,0.0,85,0.00,,,0.00,WUHU216HW,2013-01-03 00:18:00,
2013-01-02 16:23:00,35.6,31.4,29.82,South,180,0.0,0.0,85,0.00,,,0.00,WUHU216HW,2013-01-03 00:23:00,
2013-01-02 16:28:00,35.4,31.2,29.82,South,180,0.0,0.0,85,0.00,,,0.00,WUHU216HW,2013-01-03 00:28:00,
2013-01-02 16:33:00,35.2,31.3,29.82,South,180,0.0,0.0,86,0.00,,,0.00,WUHU216HW,2013-01-03 00:33:00,
2013-01-02 16:38:00,35.2,31.3,29.82,South,180,0.0,0.0,86,0.00,,,0.00,WUHU216HW,2013-01-03 00:38:00,
2013-01-02 16:43:00,34.8,31.0,29.82,South,180,0.0,0.0,86,0.00,,,0.00,WUHU216HW,2013-01-03 00:43:00,
2013-01-02 16:48:00,35.2,31.3,29.82,South,180,0.0,0.0,86,0.00,,,0.00,WUHU216HW,2013-01-03 00:48:00,
2013-01-02 16:53:00,35.2,31.3,29.82,South,180,0.0,0.0,86,0.00,,,0.00,WUHU216HW,2013-01-03 00:53:00,
2013-01-02 16:58:00,35.0,31.2,29.82,NNE,23,0.0,0.0,86,0.00,,,0.00,WUHU216HW,2013-01-03 00:58:00,
2013-01-02 17:03:00,35.0,31.2,29.82,NNE,23,0.0,0.0,86,0.00,,,0.00,WUHU216HW,2013-01-03 01:03:00,
2013-01-02 17:08:00,35.0,31.2,29.82,NNE,23,0.0,0.0,86,0.00,,,0.00,WUHU216HW,2013-01-03 01:08:00,
2013-01-02 17:13:00,34.8,31.0,29.81,NNE,23,0.0,1.1,86,0.00,,,0.00,WUHU216HW,2013-01-03 01:13:00,
2013-01-02 17:18:00,34.7,30.8,29.82,North,0,0.0,1.1,86,0.00,,,0.00,WUHU216HW,2013-01-03 01:18:00,
2013-01-02 17:23:00,34.5,30.6,29.81,North,0,0.0,0.0,86,0.00,,,0.00,WUHU216HW,2013-01-03 01:23:00,
2013-01-02 17:28:00,34.5,30.6,29.81,NW,315,0.0,0.0,86,0.00,,,0.00,WUHU216HW,2013-01-03 01:28:00,
2013-01-02 17:33:00,34.8,31.0,29.81,SSW,203,0.0,0.0,86,0.00,,,0.00,WUHU216HW,2013-01-03 01:33:00,
2013-01-02 17:38:00,35.2,31.3,29.81,SSW,203,0.0,0.0,86,0.00,,,0.00,WUHU216HW,2013-01-03 01:38:00,
2013-01-02 17:43:00,35.2,31.3,29.81,SSW,203,0.0,0.0,86,0.00,,,0.00,WUHU216HW,2013-01-03 01:43:00,
2013-01-02 17:48:00,35.2,31.3,29.81,SSW,203,0.0,0.0,86,0.00,,,0.00,WUHU216HW,2013-01-03 01:48:00,
2013-01-02 17:53:00,35.4,31.2,29.81,SSW,203,0.0,0.0,85,0.00,,,0.00,WUHU216HW,2013-01-03 01:53:00,
2013-01-02 17:58:00,35.4,31.2,29.80,SSW,203,0.0,0.0,85,0.00,,,0.00,WUHU216HW,2013-01-03 01:58:00,
2013-01-02 18:03:00,35.2,31.1,29.80,SSW,203,0.0,0.0,85,0.00,,,0.00,WUHU216HW,2013-01-03 02:03:00,
2013-01-02 18:08:00,35.6,31.1,29.80,South,180,0.0,1.3,84,0.00,,,0.00,WUHU216HW,2013-01-03 02:08:00,
2013-01-02 18:13:00,35.7,31.3,29.80,South,180,0.0,1.3,84,0.00,,,0.00,WUHU216HW,2013-01-03 02:13:00,
2013-01-02 18:18:00,35.7,31.0,29.80,South,180,0.0,0.0,83,0.00,,,0.00,WUHU216HW,2013-01-03 02:18:00,
2013-01-02 18:23:00,35.7,31.0,29.81,SSW,203,0.0,0.0,83,0.00,,,0.00,WUHU216HW,2013-01-03 02:23:00,
2013-01-02 18:28:00,35.4,30.7,29.81,SSW,203,0.0,0.0,83,0.00,,,0.00,WUHU216HW,2013-01-03 02:28:00,
2013-01-02 18:33:00,35.4,30.7,29.80,South,180,0.0,0.0,83,0.00,,,0.00,WUHU216HW,2013-01-03 02:33:00,
2013-01-02 18:38:00,35.4,30.7,29.80,SSW,203,0.0,0.0,83,0.00,,,0.00,WUHU216HW,2013-01-03 02:38:00,
2013-01-02 18:43:00,35.2,30.5,29.80,NNE,23,1.3,1.3,83,0.00,,,0.00,WUHU216HW,2013-01-03 02:43:00,
2013-01-02 18:48:00,34.3,29.9,29.80,North,0,0.0,1.3,84,0.00,,,0.00,WUHU216HW,2013-01-03 02:48:00,
2013-01-02 18:53:00,33.6,29.4,29.80,NW,315,0.0,0.0,85,0.00,,,0.00,WUHU216HW,2013-01-03 02:53:00,
2013-01-02 18:58:00,33.2,29.4,29.80,NW,315,0.0,0.0,86,0.00,,,0.00,WUHU216HW,2013-01-03 02:58:00,
2013-01-02 19:04:00,33.6,29.7,29.80,SSW,203,0.0,0.0,86,0.00,,,0.00,WUHU216HW,2013-01-03 03:04:00,
2013-01-02 19:09:00,34.3,30.2,29.80,SSW,203,0.0,0.0,85,0.00,,,0.00,WUHU216HW,2013-01-03 03:09:00,
2013-01-02 19:14:00,34.5,30.3,29.80,South,180,1.3,1.3,85,0.00,,,0.00,WUHU216HW,2013-01-03 03:14:00,
2013-01-02 19:19:00,34.8,30.7,29.80,WNW,293,0.0,1.3,85,0.00,,,0.00,WUHU216HW,2013-01-03 03:19:00,
2013-01-02 19:24:00,34.8,30.7,29.80,SSW,203,0.0,0.0,85,0.00,,,0.00,WUHU216HW,2013-01-03 03:24:00,
2013-01-02 19:29:00,34.8,30.4,29.79,South,180,0.0,0.0,84,0.00,,,0.00,WUHU216HW,2013-01-03 03:29:00,
2013-01-02 19:35:00,34.8,30.4,29.79,SW,225,0.0,1.5,84,0.00,,,0.00,WUHU216HW,2013-01-03 03:35:00,
2013-01-02 19:40:00,34.3,30.2,29.79,South,180,0.0,1.5,85,0.00,,,0.00,WUHU216HW,2013-01-03 03:40:00,
2013-01-02 19:46:00,33.6,29.7,29.79,SSW,203,0.0,0.0,86,0.00,,,0.00,WUHU216HW,2013-01-03 03:46:00,
2013-01-02 19:51:00,33.4,29.6,29.79,NW,315,0.0,0.0,86,0.00,,,0.00,WUHU216HW,2013-01-03 03:51:00,
2013-01-02 19:56:00,33.0,29.5,29.79,SW,225,0.0,0.0,87,0.00,,,0.00,WUHU216HW,2013-01-03 03:56:00,
2013-01-02 20:01:00,33.6,30.0,29.79,SSW,203,0.0,0.0,87,0.00,,,0.00,WUHU216HW,2013-01-03 04:01:00,
2013-01-02 20:06:00,34.3,30.2,29.79,NNE,23,1.1,1.1,85,0.00,,,0.00,WUHU216HW,2013-01-03 04:06:00,
2013-01-02 20:11:00,34.1,30.0,29.79,NNE,23,0.0,1.1,85,0.00,,,0.00,WUHU216HW,2013-01-03 04:11:00,
2013-01-02 20:16:00,33.6,29.4,29.79,South,180,0.0,1.1,85,0.00,,,0.00,WUHU216HW,2013-01-03 04:16:00,
2013-01-02 20:21:00,33.2,29.4,29.79,West,270,0.0,0.0,86,0.00,,,0.00,WUHU216HW,2013-01-03 04:21:00,
2013-01-02 20:26:00,33.2,29.4,29.79,South,180,0.0,0.0,86,0.00,,,0.00,WUHU216HW,2013-01-03 04:26:00,
2013-01-02 20:31:00,33.9,29.8,29.79,NNE,23,0.0,0.0,85,0.00,,,0.00,WUHU216HW,2013-01-03 04:31:00,
2013-01-02 20:36:00,34.3,29.9,29.79,SSW,203,1.3,1.7,84,0.00,,,0.00,WUHU216HW,2013-01-03 04:36:00,
2013-01-02 20:41:00,34.7,29.9,29.79,North,0,0.0,1.7,83,0.00,,,0.00,WUHU216HW,2013-01-03 04:41:00,
2013-01-02 20:46:00,34.5,29.8,29.79,SW,225,0.0,1.3,83,0.00,,,0.00,WUHU216HW,2013-01-03 04:46:00,
2013-01-02 20:51:00,34.7,29.6,29.78,South,180,0.0,0.0,82,0.00,,,0.00,WUHU216HW,2013-01-03 04:51:00,
2013-01-02 20:56:00,34.5,29.5,29.78,SSW,203,0.0,0.0,82,0.00,,,0.00,WUHU216HW,2013-01-03 04:56:00,
2013-01-02 21:00:00,34.5,29.5,29.79,South,180,0.0,0.0,82,0.00,,,0.00,WUHU216HW,2013-01-03 05:00:00,
2013-01-02 21:01:00,34.5,29.5,29.79,South,180,0.0,0.0,82,0.00,,,0.00,WUHU216HW,2013-01-03 05:01:00,
2013-01-02 21:02:00,34.7,29.6,29.78,South,180,2.6,2.6,82,0.00,,,0.00,WUHU216HW,2013-01-03 05:02:00,
2013-01-02 21:04:00,34.8,29.5,29.78,SSW,203,0.6,2.6,81,0.00,,,0.00,WUHU216HW,2013-01-03 05:04:00,
2013-01-02 21:09:00,35.2,29.9,29.78,South,180,0.0,2.6,81,0.00,,,0.00,WUHU216HW,2013-01-03 05:09:00,
2013-01-02 21:14:00,35.2,29.9,29.78,SW,225,0.0,1.3,81,0.00,,,0.00,WUHU216HW,2013-01-03 05:14:00,
2013-01-02 21:19:00,34.8,29.5,29.78,South,180,0.0,1.3,81,0.00,,,0.00,WUHU216HW,2013-01-03 05:19:00,
2013-01-02 21:23:00,34.8,29.8,29.78,South,180,0.0,0.0,82,0.00,,,0.00,WUHU216HW,2013-01-03 05:23:00,
2013-01-02 21:29:00,34.3,29.3,29.78,SW,225,2.2,2.2,82,0.00,,,0.00,WUHU216HW,2013-01-03 05:29:00,
2013-01-02 21:33:00,33.6,29.2,29.78,SW,225,0.0,2.2,84,0.00,,,0.00,WUHU216HW,2013-01-03 05:33:00,
2013-01-02 21:39:00,33.4,29.0,29.78,North,0,0.0,0.0,84,0.00,,,0.00,WUHU216HW,2013-01-03 05:39:00,
2013-01-02 21:44:00,33.4,29.0,29.77,West,270,0.0,0.0,84,0.00,,,0.00,WUHU216HW,2013-01-03 05:44:00,
2013-01-02 21:49:00,33.0,29.0,29.78,SSW,203,0.0,1.3,85,0.00,,,0.00,WUHU216HW,2013-01-03 05:49:00,
2013-01-02 21:54:00,32.5,28.8,29.78,West,270,0.0,1.3,86,0.00,,,0.00,WUHU216HW,2013-01-03 05:54:00,
2013-01-02 21:59:00,32.3,28.6,29.77,SSW,203,0.0,0.0,86,0.00,,,0.00,WUHU216HW,2013-01-03 05:59:00,
2013-01-02 22:04:00,32.5,28.8,29.77,SSE,158,0.0,0.0,86,0.00,,,0.00,WUHU216HW,2013-01-03 06:04:00,
2013-01-02 22:09:00,33.2,29.1,29.77,SSW,203,2.4,2.4,85,0.00,,,0.00,WUHU216HW,2013-01-03 06:09:00,
2013-01-02 22:14:00,33.8,29.3,29.77,SSW,203,0.0,2.4,84,0.00,,,0.00,WUHU216HW,2013-01-03 06:14:00,
2013-01-02 22:19:00,34.3,29.6,29.77,SSW,203,0.0,2.4,83,0.00,,,0.00,WUHU216HW,2013-01-03 06:19:00,
2013-01-02 22:24:00,34.3,29.3,29.77,SSW,203,0.0,0.0,82,0.00,,,0.00,WUHU216HW,2013-01-03 06:24:00,
2013-01-02 22:29:00,34.3,29.3,29.77,South,180,1.3,1.3,82,0.00,,,0.00,WUHU216HW,2013-01-03 06:29:00,
2013-01-02 22:34:00,34.3,29.0,29.77,SSW,203,0.0,1.3,81,0.00,,,0.00,WUHU216HW,2013-01-03 06:34:00,
2013-01-02 22:39:00,34.3,29.0,29.77,SSW,203,0.0,1.3,81,0.00,,,0.00,WUHU216HW,2013-01-03 06:39:00,
2013-01-02 22:44:00,34.3,29.0,29.77,South,180,0.0,0.0,81,0.00,,,0.00,WUHU216HW,2013-01-03 06:44:00,
2013-01-02 22:49:00,34.3,29.0,29.77,South,180,0.0,0.0,81,0.00,,,0.00,WUHU216HW,2013-01-03 06:49:00,
2013-01-02 22:54:00,34.3,29.0,29.77,South,180,0.0,1.3,81,0.00,,,0.00,WUHU216HW,2013-01-03 06:54:00,
2013-01-02 22:59:00,34.3,29.0,29.76,South,180,0.0,1.3,81,0.00,,,0.00,WUHU216HW,2013-01-03 06:59:00,
2013-01-02 23:04:00,34.5,28.9,29.75,South,180,0.0,2.4,80,0.00,,,0.00,WUHU216HW,2013-01-03 07:04:00,
2013-01-02 23:09:00,34.7,29.1,29.76,SSW,203,0.0,2.4,80,0.00,,,0.00,WUHU216HW,2013-01-03 07:09:00,
2013-01-02 23:14:00,34.8,28.9,29.75,NE,45,0.0,0.0,79,0.00,,,0.00,WUHU216HW,2013-01-03 07:14:00,
2013-01-02 23:19:00,35.0,28.8,29.76,SSW,203,0.0,0.0,78,0.00,,,0.00,WUHU216HW,2013-01-03 07:19:00,
2013-01-02 23:24:00,35.0,29.1,29.75,NE,45,1.5,1.5,79,0.00,,,0.00,WUHU216HW,2013-01-03 07:24:00,
2013-01-02 23:29:00,35.2,29.0,29.76,South,180,0.0,1.5,78,0.00,,,0.00,WUHU216HW,2013-01-03 07:29:00,
2013-01-02 23:34:00,35.2,29.0,29.75,SSW,203,0.0,1.5,78,0.00,,,0.00,WUHU216HW,2013-01-03 07:34:00,
2013-01-02 23:39:00,35.2,29.0,29.75,South,180,0.0,0.6,78,0.00,,,0.00,WUHU216HW,2013-01-03 07:39:00,
2013-01-02 23:44:00,34.8,28.6,29.76,South,180,0.0,0.0,78,0.00,,,0.00,WUHU216HW,2013-01-03 07:44:00,
2013-01-02 23:49:00,34.8,28.9,29.75,South,180,0.0,0.0,79,0.00,,,0.00,WUHU216HW,2013-01-03 07:49:00,
2013-01-02 23:54:00,34.5,28.6,29.75,SSW,203,0.0,0.0,79,0.00,,,0.00,WUHU216HW,2013-01-03 07:54:00,
2013-01-02 23:59:00,34.3,28.4,29.75,South,180,0.0,0.0,79,0.00,,,0.00,WUHU216HW,2013-01-03 07:59:00,